sensor_id;sensor_type;location;lat;lon;timestamp;P1;durP1;ratioP1;P2;durP2;ratioP2
23573;SDS011;11965;53.640;10.050;2023-06-19T00:02:37;9.14;;;9.14;;
23573;SDS011;11965;53.640;10.050;2023-06-19T00:05:04;9.41;;;9.41;;
23573;SDS011;11965;53.640;10.050;2023-06-19T00:07:31;9.34;;;9.34;;
23573;SDS011;11965;53.640;10.050;2023-06-19T00:09:59;9.19;;;9.19;;
23573;SDS011;11965;53.640;10.050;2023-06-19T00:12:26;9.57;;;9.57;;
23573;SDS011;11965;53.640;10.050;2023-06-19T00:14:52;9.09;;;9.09;;
23573;SDS011;11965;53.640;10.050;2023-06-19T00:17:19;9.30;;;9.30;;
23573;SDS011;11965;53.640;10.050;2023-06-19T00:19:46;9.07;;;9.07;;
23573;SDS011;11965;53.640;10.050;2023-06-19T00:22:14;8.88;;;8.88;;
23573;SDS011;11965;53.640;10.050;2023-06-19T00:24:43;9.26;;;9.26;;
23573;SDS011;11965;53.640;10.050;2023-06-19T00:27:14;9.28;;;9.28;;
23573;SDS011;11965;53.640;10.050;2023-06-19T00:29:40;9.27;;;9.27;;
23573;SDS011;11965;53.640;10.050;2023-06-19T00:32:07;9.25;;;9.25;;
23573;SDS011;11965;53.640;10.050;2023-06-19T00:34:34;9.22;;;9.22;;
23573;SDS011;11965;53.640;10.050;2023-06-19T00:37:02;9.49;;;9.49;;
23573;SDS011;11965;53.640;10.050;2023-06-19T00:39:29;9.18;;;9.18;;
23573;SDS011;11965;53.640;10.050;2023-06-19T00:41:56;9.99;;;9.99;;
23573;SDS011;11965;53.640;10.050;2023-06-19T00:44:24;9.75;;;9.75;;
23573;SDS011;11965;53.640;10.050;2023-06-19T00:46:55;9.45;;;9.45;;
23573;SDS011;11965;53.640;10.050;2023-06-19T00:49:24;9.47;;;9.47;;
23573;SDS011;11965;53.640;10.050;2023-06-19T00:51:51;9.53;;;9.53;;
23573;SDS011;11965;53.640;10.050;2023-06-19T00:54:19;9.26;;;9.26;;
23573;SDS011;11965;53.640;10.050;2023-06-19T00:56:46;9.86;;;9.86;;
23573;SDS011;11965;53.640;10.050;2023-06-19T00:59:15;9.72;;;9.72;;
23573;SDS011;11965;53.640;10.050;2023-06-19T01:01:46;9.73;;;9.73;;
23573;SDS011;11965;53.640;10.050;2023-06-19T01:04:13;9.73;;;9.73;;
23573;SDS011;11965;53.640;10.050;2023-06-19T01:06:42;9.77;;;9.77;;
23573;SDS011;11965;53.640;10.050;2023-06-19T01:09:17;9.81;;;9.81;;
23573;SDS011;11965;53.640;10.050;2023-06-19T01:11:50;10.01;;;10.01;;
23573;SDS011;11965;53.640;10.050;2023-06-19T01:14:24;9.29;;;9.29;;
23573;SDS011;11965;53.640;10.050;2023-06-19T01:16:56;10.01;;;10.01;;
23573;SDS011;11965;53.640;10.050;2023-06-19T01:19:24;9.34;;;9.34;;
23573;SDS011;11965;53.640;10.050;2023-06-19T01:21:52;9.77;;;9.77;;
23573;SDS011;11965;53.640;10.050;2023-06-19T01:24:20;9.96;;;9.96;;
23573;SDS011;11965;53.640;10.050;2023-06-19T01:26:47;9.87;;;9.87;;
23573;SDS011;11965;53.640;10.050;2023-06-19T01:29:14;9.64;;;9.64;;
23573;SDS011;11965;53.640;10.050;2023-06-19T01:31:45;9.74;;;9.74;;
23573;SDS011;11965;53.640;10.050;2023-06-19T01:34:25;9.81;;;9.81;;
23573;SDS011;11965;53.640;10.050;2023-06-19T01:36:55;10.00;;;10.00;;
23573;SDS011;11965;53.640;10.050;2023-06-19T01:39:24;10.41;;;10.41;;
23573;SDS011;11965;53.640;10.050;2023-06-19T01:41:52;10.39;;;10.39;;
23573;SDS011;11965;53.640;10.050;2023-06-19T01:44:21;10.24;;;10.24;;
23573;SDS011;11965;53.640;10.050;2023-06-19T01:46:49;9.91;;;9.91;;
23573;SDS011;11965;53.640;10.050;2023-06-19T01:49:17;10.27;;;10.27;;
23573;SDS011;11965;53.640;10.050;2023-06-19T01:51:45;10.23;;;10.23;;
23573;SDS011;11965;53.640;10.050;2023-06-19T01:54:12;9.78;;;9.78;;
23573;SDS011;11965;53.640;10.050;2023-06-19T01:56:40;9.53;;;9.53;;
23573;SDS011;11965;53.640;10.050;2023-06-19T01:59:07;10.72;;;10.72;;
23573;SDS011;11965;53.640;10.050;2023-06-19T02:01:34;10.17;;;10.17;;
23573;SDS011;11965;53.640;10.050;2023-06-19T02:04:01;10.08;;;10.08;;
23573;SDS011;11965;53.640;10.050;2023-06-19T02:06:29;10.47;;;10.47;;
23573;SDS011;11965;53.640;10.050;2023-06-19T02:08:56;10.25;;;10.25;;
23573;SDS011;11965;53.640;10.050;2023-06-19T02:11:23;10.10;;;10.10;;
23573;SDS011;11965;53.640;10.050;2023-06-19T02:13:54;10.11;;;10.11;;
23573;SDS011;11965;53.640;10.050;2023-06-19T02:16:21;10.36;;;10.36;;
23573;SDS011;11965;53.640;10.050;2023-06-19T02:18:48;10.90;;;10.90;;
23573;SDS011;11965;53.640;10.050;2023-06-19T02:21:15;10.46;;;10.46;;
23573;SDS011;11965;53.640;10.050;2023-06-19T02:23:41;10.43;;;10.43;;
23573;SDS011;11965;53.640;10.050;2023-06-19T02:26:08;10.60;;;10.60;;
23573;SDS011;11965;53.640;10.050;2023-06-19T02:28:35;10.97;;;10.97;;
23573;SDS011;11965;53.640;10.050;2023-06-19T02:31:03;10.77;;;10.77;;
23573;SDS011;11965;53.640;10.050;2023-06-19T02:33:30;10.66;;;10.66;;
23573;SDS011;11965;53.640;10.050;2023-06-19T02:35:57;10.96;;;10.96;;
23573;SDS011;11965;53.640;10.050;2023-06-19T02:38:24;11.24;;;11.24;;
23573;SDS011;11965;53.640;10.050;2023-06-19T02:40:51;10.99;;;10.99;;
23573;SDS011;11965;53.640;10.050;2023-06-19T02:43:18;10.12;;;10.12;;
23573;SDS011;11965;53.640;10.050;2023-06-19T02:45:45;10.87;;;10.87;;
23573;SDS011;11965;53.640;10.050;2023-06-19T02:48:13;11.00;;;11.00;;
23573;SDS011;11965;53.640;10.050;2023-06-19T02:50:40;10.96;;;10.96;;
23573;SDS011;11965;53.640;10.050;2023-06-19T02:53:07;11.00;;;11.00;;
23573;SDS011;11965;53.640;10.050;2023-06-19T02:55:34;11.04;;;11.04;;
23573;SDS011;11965;53.640;10.050;2023-06-19T02:58:02;11.18;;;11.18;;
23573;SDS011;11965;53.640;10.050;2023-06-19T03:00:29;10.85;;;10.85;;
23573;SDS011;11965;53.640;10.050;2023-06-19T03:02:56;11.32;;;11.32;;
23573;SDS011;11965;53.640;10.050;2023-06-19T03:05:25;11.18;;;11.18;;
23573;SDS011;11965;53.640;10.050;2023-06-19T03:07:52;11.29;;;11.29;;
23573;SDS011;11965;53.640;10.050;2023-06-19T03:10:19;11.05;;;11.05;;
23573;SDS011;11965;53.640;10.050;2023-06-19T03:12:46;11.21;;;11.21;;
23573;SDS011;11965;53.640;10.050;2023-06-19T03:15:13;11.52;;;11.52;;
23573;SDS011;11965;53.640;10.050;2023-06-19T03:17:44;11.29;;;11.29;;
23573;SDS011;11965;53.640;10.050;2023-06-19T03:20:12;11.28;;;11.28;;
23573;SDS011;11965;53.640;10.050;2023-06-19T03:22:45;11.69;;;11.69;;
23573;SDS011;11965;53.640;10.050;2023-06-19T03:25:14;11.73;;;11.73;;
23573;SDS011;11965;53.640;10.050;2023-06-19T03:27:42;11.26;;;11.26;;
23573;SDS011;11965;53.640;10.050;2023-06-19T03:30:08;11.31;;;11.31;;
23573;SDS011;11965;53.640;10.050;2023-06-19T03:32:39;11.22;;;11.22;;
23573;SDS011;11965;53.640;10.050;2023-06-19T03:35:09;11.23;;;11.23;;
23573;SDS011;11965;53.640;10.050;2023-06-19T03:37:41;11.61;;;11.61;;
23573;SDS011;11965;53.640;10.050;2023-06-19T03:40:10;11.63;;;11.63;;
23573;SDS011;11965;53.640;10.050;2023-06-19T03:42:41;11.53;;;11.53;;
23573;SDS011;11965;53.640;10.050;2023-06-19T03:45:08;11.48;;;11.48;;
23573;SDS011;11965;53.640;10.050;2023-06-19T03:47:36;11.88;;;11.88;;
23573;SDS011;11965;53.640;10.050;2023-06-19T03:50:03;11.91;;;11.91;;
23573;SDS011;11965;53.640;10.050;2023-06-19T03:52:35;12.24;;;12.24;;
23573;SDS011;11965;53.640;10.050;2023-06-19T03:55:02;12.01;;;12.01;;
23573;SDS011;11965;53.640;10.050;2023-06-19T03:57:31;12.64;;;12.64;;
23573;SDS011;11965;53.640;10.050;2023-06-19T03:59:57;12.24;;;12.24;;
23573;SDS011;11965;53.640;10.050;2023-06-19T04:02:24;12.28;;;12.28;;
23573;SDS011;11965;53.640;10.050;2023-06-19T04:04:51;11.96;;;11.96;;
23573;SDS011;11965;53.640;10.050;2023-06-19T04:07:19;12.53;;;12.53;;
23573;SDS011;11965;53.640;10.050;2023-06-19T04:09:45;12.63;;;12.63;;
23573;SDS011;11965;53.640;10.050;2023-06-19T04:12:12;12.02;;;12.02;;
23573;SDS011;11965;53.640;10.050;2023-06-19T04:14:41;12.44;;;12.44;;
23573;SDS011;11965;53.640;10.050;2023-06-19T04:17:08;12.49;;;12.49;;
23573;SDS011;11965;53.640;10.050;2023-06-19T04:19:35;12.61;;;12.61;;
23573;SDS011;11965;53.640;10.050;2023-06-19T04:22:02;12.37;;;12.37;;
23573;SDS011;11965;53.640;10.050;2023-06-19T04:24:29;12.48;;;12.48;;
23573;SDS011;11965;53.640;10.050;2023-06-19T04:26:56;12.63;;;12.63;;
23573;SDS011;11965;53.640;10.050;2023-06-19T04:29:22;12.51;;;12.51;;
23573;SDS011;11965;53.640;10.050;2023-06-19T04:31:51;12.51;;;12.51;;
23573;SDS011;11965;53.640;10.050;2023-06-19T04:34:18;12.60;;;12.60;;
23573;SDS011;11965;53.640;10.050;2023-06-19T04:36:46;12.76;;;12.76;;
23573;SDS011;11965;53.640;10.050;2023-06-19T04:39:13;12.83;;;12.83;;
23573;SDS011;11965;53.640;10.050;2023-06-19T04:41:40;12.80;;;12.80;;
23573;SDS011;11965;53.640;10.050;2023-06-19T04:44:08;12.86;;;12.86;;
23573;SDS011;11965;53.640;10.050;2023-06-19T04:46:36;12.49;;;12.49;;
23573;SDS011;11965;53.640;10.050;2023-06-19T04:49:05;13.41;;;13.41;;
23573;SDS011;11965;53.640;10.050;2023-06-19T04:51:32;13.00;;;13.00;;
23573;SDS011;11965;53.640;10.050;2023-06-19T04:53:59;13.45;;;13.45;;
23573;SDS011;11965;53.640;10.050;2023-06-19T04:56:26;13.69;;;13.69;;
23573;SDS011;11965;53.640;10.050;2023-06-19T04:58:53;13.44;;;13.44;;
23573;SDS011;11965;53.640;10.050;2023-06-19T05:01:21;12.97;;;12.97;;
23573;SDS011;11965;53.640;10.050;2023-06-19T05:03:53;13.26;;;13.26;;
23573;SDS011;11965;53.640;10.050;2023-06-19T05:06:23;13.22;;;13.22;;
23573;SDS011;11965;53.640;10.050;2023-06-19T05:08:50;13.50;;;13.50;;
23573;SDS011;11965;53.640;10.050;2023-06-19T05:11:18;13.31;;;13.31;;
23573;SDS011;11965;53.640;10.050;2023-06-19T05:13:45;13.23;;;13.23;;
23573;SDS011;11965;53.640;10.050;2023-06-19T05:16:12;13.27;;;13.27;;
23573;SDS011;11965;53.640;10.050;2023-06-19T05:18:41;13.69;;;13.69;;
23573;SDS011;11965;53.640;10.050;2023-06-19T05:21:09;13.33;;;13.33;;
23573;SDS011;11965;53.640;10.050;2023-06-19T05:23:37;13.57;;;13.57;;
23573;SDS011;11965;53.640;10.050;2023-06-19T05:26:04;13.76;;;13.76;;
23573;SDS011;11965;53.640;10.050;2023-06-19T05:28:31;13.85;;;13.85;;
23573;SDS011;11965;53.640;10.050;2023-06-19T05:30:58;13.41;;;13.41;;
23573;SDS011;11965;53.640;10.050;2023-06-19T05:33:25;13.49;;;13.49;;
23573;SDS011;11965;53.640;10.050;2023-06-19T05:35:53;14.20;;;14.20;;
23573;SDS011;11965;53.640;10.050;2023-06-19T05:38:19;13.94;;;13.94;;
23573;SDS011;11965;53.640;10.050;2023-06-19T05:40:50;14.14;;;14.14;;
23573;SDS011;11965;53.640;10.050;2023-06-19T05:43:17;14.23;;;14.23;;
23573;SDS011;11965;53.640;10.050;2023-06-19T05:45:45;13.93;;;13.93;;
23573;SDS011;11965;53.640;10.050;2023-06-19T05:48:11;13.85;;;13.85;;
23573;SDS011;11965;53.640;10.050;2023-06-19T05:50:38;13.43;;;13.43;;
23573;SDS011;11965;53.640;10.050;2023-06-19T05:53:05;14.07;;;14.07;;
23573;SDS011;11965;53.640;10.050;2023-06-19T05:55:32;13.87;;;13.87;;
23573;SDS011;11965;53.640;10.050;2023-06-19T05:58:01;14.07;;;14.07;;
23573;SDS011;11965;53.640;10.050;2023-06-19T06:00:29;14.08;;;14.08;;
23573;SDS011;11965;53.640;10.050;2023-06-19T06:02:57;14.50;;;14.50;;
23573;SDS011;11965;53.640;10.050;2023-06-19T06:05:25;14.86;;;14.86;;
23573;SDS011;11965;53.640;10.050;2023-06-19T06:07:52;15.05;;;15.05;;
23573;SDS011;11965;53.640;10.050;2023-06-19T06:10:19;15.17;;;15.17;;
23573;SDS011;11965;53.640;10.050;2023-06-19T06:12:46;14.23;;;14.23;;
23573;SDS011;11965;53.640;10.050;2023-06-19T06:15:15;14.26;;;14.26;;
23573;SDS011;11965;53.640;10.050;2023-06-19T06:17:42;14.89;;;14.89;;
23573;SDS011;11965;53.640;10.050;2023-06-19T06:20:10;14.26;;;14.26;;
23573;SDS011;11965;53.640;10.050;2023-06-19T06:22:37;14.30;;;14.30;;
23573;SDS011;11965;53.640;10.050;2023-06-19T06:25:04;14.99;;;14.99;;
23573;SDS011;11965;53.640;10.050;2023-06-19T06:27:32;14.79;;;14.79;;
23573;SDS011;11965;53.640;10.050;2023-06-19T06:29:59;14.65;;;14.65;;
23573;SDS011;11965;53.640;10.050;2023-06-19T06:32:28;15.32;;;15.32;;
23573;SDS011;11965;53.640;10.050;2023-06-19T06:34:56;15.75;;;15.75;;
23573;SDS011;11965;53.640;10.050;2023-06-19T06:37:24;15.08;;;15.08;;
23573;SDS011;11965;53.640;10.050;2023-06-19T06:39:51;15.46;;;15.46;;
23573;SDS011;11965;53.640;10.050;2023-06-19T06:42:18;15.13;;;15.13;;
23573;SDS011;11965;53.640;10.050;2023-06-19T06:44:45;14.81;;;14.81;;
23573;SDS011;11965;53.640;10.050;2023-06-19T06:47:12;15.81;;;15.81;;
23573;SDS011;11965;53.640;10.050;2023-06-19T06:49:40;15.69;;;15.69;;
23573;SDS011;11965;53.640;10.050;2023-06-19T06:52:07;15.70;;;15.70;;
23573;SDS011;11965;53.640;10.050;2023-06-19T06:54:34;15.83;;;15.83;;
23573;SDS011;11965;53.640;10.050;2023-06-19T06:57:01;15.93;;;15.93;;
23573;SDS011;11965;53.640;10.050;2023-06-19T06:59:28;15.93;;;15.93;;
23573;SDS011;11965;53.640;10.050;2023-06-19T07:01:55;16.09;;;16.09;;
23573;SDS011;11965;53.640;10.050;2023-06-19T07:04:22;16.38;;;16.38;;
23573;SDS011;11965;53.640;10.050;2023-06-19T07:06:50;15.59;;;15.59;;
23573;SDS011;11965;53.640;10.050;2023-06-19T07:09:18;16.47;;;16.47;;
23573;SDS011;11965;53.640;10.050;2023-06-19T07:11:46;16.09;;;16.09;;
23573;SDS011;11965;53.640;10.050;2023-06-19T07:14:13;16.74;;;16.74;;
23573;SDS011;11965;53.640;10.050;2023-06-19T07:16:43;16.27;;;16.27;;
23573;SDS011;11965;53.640;10.050;2023-06-19T07:19:10;16.71;;;16.71;;
23573;SDS011;11965;53.640;10.050;2023-06-19T07:21:37;16.97;;;16.97;;
23573;SDS011;11965;53.640;10.050;2023-06-19T07:24:06;16.57;;;16.57;;
23573;SDS011;11965;53.640;10.050;2023-06-19T07:26:33;16.28;;;16.28;;
23573;SDS011;11965;53.640;10.050;2023-06-19T07:29:00;16.69;;;16.69;;
23573;SDS011;11965;53.640;10.050;2023-06-19T07:31:27;16.85;;;16.85;;
23573;SDS011;11965;53.640;10.050;2023-06-19T07:33:54;16.90;;;16.90;;
23573;SDS011;11965;53.640;10.050;2023-06-19T07:36:21;16.31;;;16.31;;
23573;SDS011;11965;53.640;10.050;2023-06-19T07:38:48;16.27;;;16.27;;
23573;SDS011;11965;53.640;10.050;2023-06-19T07:41:16;16.64;;;16.64;;
23573;SDS011;11965;53.640;10.050;2023-06-19T07:43:43;16.61;;;16.61;;
23573;SDS011;11965;53.640;10.050;2023-06-19T07:46:10;16.66;;;16.66;;
23573;SDS011;11965;53.640;10.050;2023-06-19T07:48:37;17.30;;;17.30;;
23573;SDS011;11965;53.640;10.050;2023-06-19T07:51:03;16.90;;;16.90;;
23573;SDS011;11965;53.640;10.050;2023-06-19T07:53:30;17.13;;;17.13;;
23573;SDS011;11965;53.640;10.050;2023-06-19T07:55:57;17.18;;;17.18;;
23573;SDS011;11965;53.640;10.050;2023-06-19T07:58:25;16.85;;;16.85;;
23573;SDS011;11965;53.640;10.050;2023-06-19T08:00:52;16.32;;;16.32;;
23573;SDS011;11965;53.640;10.050;2023-06-19T08:03:19;16.33;;;16.33;;
23573;SDS011;11965;53.640;10.050;2023-06-19T08:05:46;16.49;;;16.49;;
23573;SDS011;11965;53.640;10.050;2023-06-19T08:08:13;17.07;;;17.07;;
23573;SDS011;11965;53.640;10.050;2023-06-19T08:10:40;17.31;;;17.31;;
23573;SDS011;11965;53.640;10.050;2023-06-19T08:13:07;17.15;;;17.15;;
23573;SDS011;11965;53.640;10.050;2023-06-19T08:15:37;16.19;;;16.19;;
23573;SDS011;11965;53.640;10.050;2023-06-19T08:18:04;16.65;;;16.65;;
23573;SDS011;11965;53.640;10.050;2023-06-19T08:20:31;16.40;;;16.40;;
23573;SDS011;11965;53.640;10.050;2023-06-19T08:22:58;17.02;;;17.02;;
23573;SDS011;11965;53.640;10.050;2023-06-19T08:25:25;16.82;;;16.82;;
23573;SDS011;11965;53.640;10.050;2023-06-19T08:27:52;16.50;;;16.50;;
23573;SDS011;11965;53.640;10.050;2023-06-19T08:30:18;16.80;;;16.80;;
23573;SDS011;11965;53.640;10.050;2023-06-19T08:32:47;16.83;;;16.83;;
23573;SDS011;11965;53.640;10.050;2023-06-19T08:35:14;16.42;;;16.42;;
23573;SDS011;11965;53.640;10.050;2023-06-19T08:37:41;16.79;;;16.79;;
23573;SDS011;11965;53.640;10.050;2023-06-19T08:40:08;17.13;;;17.13;;
23573;SDS011;11965;53.640;10.050;2023-06-19T08:42:36;17.00;;;17.00;;
23573;SDS011;11965;53.640;10.050;2023-06-19T08:45:05;16.51;;;16.51;;
23573;SDS011;11965;53.640;10.050;2023-06-19T08:47:35;16.54;;;16.54;;
23573;SDS011;11965;53.640;10.050;2023-06-19T08:50:04;16.87;;;16.87;;
23573;SDS011;11965;53.640;10.050;2023-06-19T08:52:31;16.81;;;16.81;;
23573;SDS011;11965;53.640;10.050;2023-06-19T08:54:58;16.22;;;16.22;;
23573;SDS011;11965;53.640;10.050;2023-06-19T08:57:35;16.45;;;16.45;;
23573;SDS011;11965;53.640;10.050;2023-06-19T09:00:04;16.49;;;16.49;;
23573;SDS011;11965;53.640;10.050;2023-06-19T09:02:42;16.90;;;16.90;;
23573;SDS011;11965;53.640;10.050;2023-06-19T09:05:12;16.62;;;16.62;;
23573;SDS011;11965;53.640;10.050;2023-06-19T09:07:41;16.18;;;16.18;;
23573;SDS011;11965;53.640;10.050;2023-06-19T09:10:12;16.05;;;16.05;;
23573;SDS011;11965;53.640;10.050;2023-06-19T09:12:55;16.07;;;16.07;;
23573;SDS011;11965;53.640;10.050;2023-06-19T09:15:26;16.08;;;16.08;;
23573;SDS011;11965;53.640;10.050;2023-06-19T09:18:02;15.86;;;15.86;;
23573;SDS011;11965;53.640;10.050;2023-06-19T09:20:33;16.67;;;16.67;;
23573;SDS011;11965;53.640;10.050;2023-06-19T09:23:01;16.25;;;16.25;;
23573;SDS011;11965;53.640;10.050;2023-06-19T09:25:28;16.65;;;16.65;;
23573;SDS011;11965;53.640;10.050;2023-06-19T09:27:55;16.22;;;16.22;;
23573;SDS011;11965;53.640;10.050;2023-06-19T09:30:23;16.04;;;16.04;;
23573;SDS011;11965;53.640;10.050;2023-06-19T09:32:50;16.13;;;16.13;;
23573;SDS011;11965;53.640;10.050;2023-06-19T09:35:17;15.22;;;15.22;;
23573;SDS011;11965;53.640;10.050;2023-06-19T09:37:47;15.48;;;15.48;;
23573;SDS011;11965;53.640;10.050;2023-06-19T09:40:17;14.91;;;14.91;;
23573;SDS011;11965;53.640;10.050;2023-06-19T09:42:44;14.91;;;14.91;;
23573;SDS011;11965;53.640;10.050;2023-06-19T09:45:21;14.58;;;14.58;;
23573;SDS011;11965;53.640;10.050;2023-06-19T09:47:52;14.57;;;14.57;;
23573;SDS011;11965;53.640;10.050;2023-06-19T09:50:19;14.90;;;14.90;;
23573;SDS011;11965;53.640;10.050;2023-06-19T09:52:54;14.66;;;14.66;;
23573;SDS011;11965;53.640;10.050;2023-06-19T09:55:22;13.65;;;13.65;;
23573;SDS011;11965;53.640;10.050;2023-06-19T09:57:54;13.99;;;13.99;;
23573;SDS011;11965;53.640;10.050;2023-06-19T10:00:21;13.66;;;13.66;;
23573;SDS011;11965;53.640;10.050;2023-06-19T10:02:56;13.58;;;13.58;;
23573;SDS011;11965;53.640;10.050;2023-06-19T10:05:29;13.42;;;13.42;;
23573;SDS011;11965;53.640;10.050;2023-06-19T10:07:58;13.94;;;13.94;;
23573;SDS011;11965;53.640;10.050;2023-06-19T10:10:26;13.57;;;13.57;;
23573;SDS011;11965;53.640;10.050;2023-06-19T10:12:57;13.95;;;13.95;;
23573;SDS011;11965;53.640;10.050;2023-06-19T10:15:26;13.89;;;13.89;;
23573;SDS011;11965;53.640;10.050;2023-06-19T10:17:59;14.54;;;14.54;;
23573;SDS011;11965;53.640;10.050;2023-06-19T10:20:28;14.00;;;14.00;;
23573;SDS011;11965;53.640;10.050;2023-06-19T10:23:00;14.42;;;14.42;;
23573;SDS011;11965;53.640;10.050;2023-06-19T10:25:30;14.45;;;14.45;;
23573;SDS011;11965;53.640;10.050;2023-06-19T10:27:59;15.01;;;15.01;;
23573;SDS011;11965;53.640;10.050;2023-06-19T10:30:26;15.14;;;15.14;;
23573;SDS011;11965;53.640;10.050;2023-06-19T10:32:54;15.56;;;15.56;;
23573;SDS011;11965;53.640;10.050;2023-06-19T10:35:22;15.03;;;15.03;;
23573;SDS011;11965;53.640;10.050;2023-06-19T10:37:50;14.77;;;14.77;;
23573;SDS011;11965;53.640;10.050;2023-06-19T10:40:19;15.48;;;15.48;;
23573;SDS011;11965;53.640;10.050;2023-06-19T10:42:46;15.35;;;15.35;;
23573;SDS011;11965;53.640;10.050;2023-06-19T10:45:14;15.13;;;15.13;;
23573;SDS011;11965;53.640;10.050;2023-06-19T10:47:46;15.70;;;15.70;;
23573;SDS011;11965;53.640;10.050;2023-06-19T10:50:13;15.30;;;15.30;;
23573;SDS011;11965;53.640;10.050;2023-06-19T10:52:41;15.23;;;15.23;;
23573;SDS011;11965;53.640;10.050;2023-06-19T10:55:09;15.80;;;15.80;;
23573;SDS011;11965;53.640;10.050;2023-06-19T10:57:38;15.06;;;15.06;;
23573;SDS011;11965;53.640;10.050;2023-06-19T11:00:06;15.15;;;15.15;;
23573;SDS011;11965;53.640;10.050;2023-06-19T11:02:40;15.25;;;15.25;;
23573;SDS011;11965;53.640;10.050;2023-06-19T11:05:09;15.85;;;15.85;;
23573;SDS011;11965;53.640;10.050;2023-06-19T11:07:37;15.08;;;15.08;;
23573;SDS011;11965;53.640;10.050;2023-06-19T11:10:04;15.72;;;15.72;;
23573;SDS011;11965;53.640;10.050;2023-06-19T11:12:34;15.78;;;15.78;;
23573;SDS011;11965;53.640;10.050;2023-06-19T11:15:04;15.96;;;15.96;;
23573;SDS011;11965;53.640;10.050;2023-06-19T11:17:32;15.59;;;15.59;;
23573;SDS011;11965;53.640;10.050;2023-06-19T11:19:59;16.02;;;16.02;;
23573;SDS011;11965;53.640;10.050;2023-06-19T11:22:36;15.77;;;15.77;;
23573;SDS011;11965;53.640;10.050;2023-06-19T11:25:05;15.82;;;15.82;;
23573;SDS011;11965;53.640;10.050;2023-06-19T11:27:33;16.32;;;16.32;;
23573;SDS011;11965;53.640;10.050;2023-06-19T11:30:00;16.14;;;16.14;;
23573;SDS011;11965;53.640;10.050;2023-06-19T11:32:32;16.31;;;16.31;;
23573;SDS011;11965;53.640;10.050;2023-06-19T11:35:04;16.56;;;16.56;;
23573;SDS011;11965;53.640;10.050;2023-06-19T11:37:33;16.22;;;16.22;;
23573;SDS011;11965;53.640;10.050;2023-06-19T11:40:01;16.49;;;16.49;;
23573;SDS011;11965;53.640;10.050;2023-06-19T11:42:43;15.93;;;15.93;;
23573;SDS011;11965;53.640;10.050;2023-06-19T11:45:11;15.69;;;15.69;;
23573;SDS011;11965;53.640;10.050;2023-06-19T11:47:40;15.18;;;15.18;;
23573;SDS011;11965;53.640;10.050;2023-06-19T11:50:07;15.17;;;15.17;;
23573;SDS011;11965;53.640;10.050;2023-06-19T11:52:34;14.74;;;14.74;;
23573;SDS011;11965;53.640;10.050;2023-06-19T11:55:01;14.11;;;14.11;;
23573;SDS011;11965;53.640;10.050;2023-06-19T11:57:28;13.62;;;13.62;;
23573;SDS011;11965;53.640;10.050;2023-06-19T11:59:55;13.64;;;13.64;;
23573;SDS011;11965;53.640;10.050;2023-06-19T12:02:22;14.14;;;14.14;;
23573;SDS011;11965;53.640;10.050;2023-06-19T12:04:50;13.22;;;13.22;;
23573;SDS011;11965;53.640;10.050;2023-06-19T12:07:17;12.49;;;12.49;;
23573;SDS011;11965;53.640;10.050;2023-06-19T12:09:45;12.54;;;12.54;;
23573;SDS011;11965;53.640;10.050;2023-06-19T12:12:12;11.92;;;11.92;;
23573;SDS011;11965;53.640;10.050;2023-06-19T12:14:38;11.68;;;11.68;;
23573;SDS011;11965;53.640;10.050;2023-06-19T12:17:05;11.57;;;11.57;;
23573;SDS011;11965;53.640;10.050;2023-06-19T12:19:32;11.22;;;11.22;;
23573;SDS011;11965;53.640;10.050;2023-06-19T12:22:00;11.26;;;11.26;;
23573;SDS011;11965;53.640;10.050;2023-06-19T12:24:27;11.00;;;11.00;;
23573;SDS011;11965;53.640;10.050;2023-06-19T12:26:54;11.01;;;11.01;;
23573;SDS011;11965;53.640;10.050;2023-06-19T12:29:21;11.08;;;11.08;;
23573;SDS011;11965;53.640;10.050;2023-06-19T12:31:47;11.26;;;11.26;;
23573;SDS011;11965;53.640;10.050;2023-06-19T12:34:14;11.20;;;11.20;;
23573;SDS011;11965;53.640;10.050;2023-06-19T12:36:43;10.70;;;10.70;;
23573;SDS011;11965;53.640;10.050;2023-06-19T12:39:11;10.34;;;10.34;;
23573;SDS011;11965;53.640;10.050;2023-06-19T12:41:41;10.57;;;10.57;;
23573;SDS011;11965;53.640;10.050;2023-06-19T12:44:08;10.26;;;10.26;;
23573;SDS011;11965;53.640;10.050;2023-06-19T12:46:36;10.06;;;10.06;;
23573;SDS011;11965;53.640;10.050;2023-06-19T12:49:04;10.56;;;10.56;;
23573;SDS011;11965;53.640;10.050;2023-06-19T12:51:31;9.74;;;9.74;;
23573;SDS011;11965;53.640;10.050;2023-06-19T12:53:59;9.86;;;9.86;;
23573;SDS011;11965;53.640;10.050;2023-06-19T12:56:28;9.98;;;9.98;;
23573;SDS011;11965;53.640;10.050;2023-06-19T12:58:55;9.95;;;9.95;;
23573;SDS011;11965;53.640;10.050;2023-06-19T13:01:22;9.94;;;9.94;;
23573;SDS011;11965;53.640;10.050;2023-06-19T13:03:48;10.12;;;10.12;;
23573;SDS011;11965;53.640;10.050;2023-06-19T13:06:15;9.44;;;9.44;;
23573;SDS011;11965;53.640;10.050;2023-06-19T13:08:44;9.54;;;9.54;;
23573;SDS011;11965;53.640;10.050;2023-06-19T13:11:11;9.29;;;9.29;;
23573;SDS011;11965;53.640;10.050;2023-06-19T13:13:39;9.17;;;9.17;;
23573;SDS011;11965;53.640;10.050;2023-06-19T13:16:06;9.19;;;9.19;;
23573;SDS011;11965;53.640;10.050;2023-06-19T13:18:34;9.27;;;9.27;;
23573;SDS011;11965;53.640;10.050;2023-06-19T13:21:01;9.16;;;9.16;;
23573;SDS011;11965;53.640;10.050;2023-06-19T13:23:28;9.08;;;9.08;;
23573;SDS011;11965;53.640;10.050;2023-06-19T13:25:56;9.81;;;9.81;;
23573;SDS011;11965;53.640;10.050;2023-06-19T13:28:23;9.59;;;9.59;;
23573;SDS011;11965;53.640;10.050;2023-06-19T13:30:51;9.15;;;9.15;;
23573;SDS011;11965;53.640;10.050;2023-06-19T13:33:18;8.75;;;8.75;;
23573;SDS011;11965;53.640;10.050;2023-06-19T13:35:45;7.84;;;7.84;;
23573;SDS011;11965;53.640;10.050;2023-06-19T13:38:12;7.81;;;7.81;;
23573;SDS011;11965;53.640;10.050;2023-06-19T13:40:41;7.45;;;7.45;;
23573;SDS011;11965;53.640;10.050;2023-06-19T13:43:08;7.98;;;7.98;;
23573;SDS011;11965;53.640;10.050;2023-06-19T13:45:35;8.30;;;8.30;;
23573;SDS011;11965;53.640;10.050;2023-06-19T13:48:05;8.62;;;8.62;;
23573;SDS011;11965;53.640;10.050;2023-06-19T13:50:32;8.97;;;8.97;;
23573;SDS011;11965;53.640;10.050;2023-06-19T13:53:00;8.54;;;8.54;;
23573;SDS011;11965;53.640;10.050;2023-06-19T13:55:28;8.02;;;8.02;;
23573;SDS011;11965;53.640;10.050;2023-06-19T13:57:54;7.66;;;7.66;;
23573;SDS011;11965;53.640;10.050;2023-06-19T14:00:21;7.81;;;7.81;;
23573;SDS011;11965;53.640;10.050;2023-06-19T14:02:48;7.51;;;7.51;;
23573;SDS011;11965;53.640;10.050;2023-06-19T14:05:17;8.15;;;8.15;;
23573;SDS011;11965;53.640;10.050;2023-06-19T14:07:44;7.57;;;7.57;;
23573;SDS011;11965;53.640;10.050;2023-06-19T14:10:11;7.90;;;7.90;;
23573;SDS011;11965;53.640;10.050;2023-06-19T14:12:38;7.18;;;7.18;;
23573;SDS011;11965;53.640;10.050;2023-06-19T14:15:06;7.33;;;7.33;;
23573;SDS011;11965;53.640;10.050;2023-06-19T14:17:34;7.33;;;7.33;;
23573;SDS011;11965;53.640;10.050;2023-06-19T14:20:01;6.97;;;6.97;;